Middletown, Connecticut
Current Conditions -  °F | °C
As of 5:53 PM on Wednesday 26 Nov 2014 (Local Time) from KMMK Reporting Station
Light Rain Light Rain  
Wind Chill: 25°   Ceiling: 800
Heat Index: 34°   Visibility: 5mi
Dew Point: 31°   Wind: 14mph
Humidity: 89%   Direction: 10°N
Pressure: 29.78"   Gusts: 25mph
Location:  41.56°N, 72.65°W
Report Text: KMMK 262253Z AUTO 01012G22KT 5SM -RA BR OVC008 01/M01 A2978 RMK AO2 SLP085 P0005 T00111006 TSNO
Loading
Personal Weather Stations






























Interactive Weather Map New forecast layout! Learn more

10-Day Weather Forecast

Advertisements
Track Severe Weather on mobile